sensor_id;sensor_type;location;lat;lon;timestamp;pressure;altitude;pressure_sealevel;temperature;humidity
49393;BME280;35268;42.642;23.308;2022-11-15T00:01:42;94508.03;;;4.69;76.42
49393;BME280;35268;42.642;23.308;2022-11-15T00:04:07;94509.09;;;4.68;76.65
49393;BME280;35268;42.642;23.308;2022-11-15T00:06:33;94503.81;;;4.68;76.79
49393;BME280;35268;42.642;23.308;2022-11-15T00:08:59;94492.19;;;4.69;76.99
49393;BME280;35268;42.642;23.308;2022-11-15T00:11:25;94498.00;;;4.66;76.84
49393;BME280;35268;42.642;23.308;2022-11-15T00:13:50;94492.72;;;4.66;76.40
49393;BME280;35268;42.642;23.308;2022-11-15T00:16:16;94484.00;;;4.60;76.13
49393;BME280;35268;42.642;23.308;2022-11-15T00:18:42;94491.91;;;4.60;76.85
49393;BME280;35268;42.642;23.308;2022-11-15T00:21:11;94491.91;;;4.60;76.30
49393;BME280;35268;42.642;23.308;2022-11-15T00:23:37;94482.41;;;4.59;76.59
49393;BME280;35268;42.642;23.308;2022-11-15T00:26:03;94480.78;;;4.58;76.70
49393;BME280;35268;42.642;23.308;2022-11-15T00:28:28;94478.94;;;4.53;76.56
49393;BME280;35268;42.642;23.308;2022-11-15T00:31:00;94468.91;;;4.50;76.55
49393;BME280;35268;42.642;23.308;2022-11-15T00:33:26;94474.97;;;4.51;76.19
49393;BME280;35268;42.642;23.308;2022-11-15T00:35:51;94461.50;;;4.47;75.93
49393;BME280;35268;42.642;23.308;2022-11-15T00:38:17;94467.31;;;4.44;75.79
49393;BME280;35268;42.642;23.308;2022-11-15T00:40:42;94466.50;;;4.43;75.60
49393;BME280;35268;42.642;23.308;2022-11-15T00:43:07;94466.78;;;4.42;75.43
49393;BME280;35268;42.642;23.308;2022-11-15T00:45:33;94465.19;;;4.41;75.55
49393;BME280;35268;42.642;23.308;2022-11-15T00:47:58;94468.34;;;4.38;75.47
49393;BME280;35268;42.642;23.308;2022-11-15T00:50:24;94475.72;;;4.36;75.50
49393;BME280;35268;42.642;23.308;2022-11-15T00:52:49;94477.31;;;4.32;75.83
49393;BME280;35268;42.642;23.308;2022-11-15T00:55:18;94473.59;;;4.33;75.80
49393;BME280;35268;42.642;23.308;2022-11-15T00:57:45;94467.78;;;4.26;76.19
49393;BME280;35268;42.642;23.308;2022-11-15T01:00:12;94467.50;;;4.22;76.73
49393;BME280;35268;42.642;23.308;2022-11-15T01:02:37;94465.63;;;4.22;76.69
49393;BME280;35268;42.642;23.308;2022-11-15T01:05:03;94463.53;;;4.19;76.70
49393;BME280;35268;42.642;23.308;2022-11-15T01:07:29;94462.72;;;4.19;77.16
49393;BME280;35268;42.642;23.308;2022-11-15T01:09:54;94458.25;;;4.19;77.21
49393;BME280;35268;42.642;23.308;2022-11-15T01:12:20;94458.78;;;4.21;77.53
49393;BME280;35268;42.642;23.308;2022-11-15T01:14:45;94455.63;;;4.25;78.15
49393;BME280;35268;42.642;23.308;2022-11-15T01:17:10;94464.84;;;4.27;78.80
49393;BME280;35268;42.642;23.308;2022-11-15T01:19:36;94464.84;;;4.27;78.45
49393;BME280;35268;42.642;23.308;2022-11-15T01:22:01;94461.97;;;4.29;78.59
49393;BME280;35268;42.642;23.308;2022-11-15T01:24:27;94454.59;;;4.31;79.00
49393;BME280;35268;42.642;23.308;2022-11-15T01:26:53;94449.31;;;4.31;79.17
49393;BME280;35268;42.642;23.308;2022-11-15T01:29:18;94453.81;;;4.30;79.05
49393;BME280;35268;42.642;23.308;2022-11-15T01:31:43;94449.31;;;4.31;78.94
49393;BME280;35268;42.642;23.308;2022-11-15T01:34:09;94454.59;;;4.31;78.85
49393;BME280;35268;42.642;23.308;2022-11-15T01:36:35;94449.31;;;4.31;78.98
49393;BME280;35268;42.642;23.308;2022-11-15T01:39:00;94457.22;;;4.31;78.55
49393;BME280;35268;42.642;23.308;2022-11-15T01:41:31;94447.19;;;4.28;78.21
49393;BME280;35268;42.642;23.308;2022-11-15T01:44:34;94451.94;;;4.31;78.28
49393;BME280;35268;42.642;23.308;2022-11-15T01:47:04;94448.78;;;4.29;78.25
49393;BME280;35268;42.642;23.308;2022-11-15T01:49:33;94450.09;;;4.31;78.51
49393;BME280;35268;42.642;23.308;2022-11-15T01:52:02;94455.13;;;4.33;77.85
49393;BME280;35268;42.642;23.308;2022-11-15T01:54:29;94436.66;;;4.33;77.60
49393;BME280;35268;42.642;23.308;2022-11-15T01:57:05;94446.16;;;4.34;77.63
49393;BME280;35268;42.642;23.308;2022-11-15T01:59:32;94444.56;;;4.33;77.42
49393;BME280;35268;42.642;23.308;2022-11-15T02:01:58;94443.00;;;4.32;77.26
49393;BME280;35268;42.642;23.308;2022-11-15T02:04:26;94448.28;;;4.32;76.74
49393;BME280;35268;42.642;23.308;2022-11-15T02:06:53;94448.78;;;4.29;76.47
49393;BME280;35268;42.642;23.308;2022-11-15T02:09:19;94441.34;;;4.20;76.29
49393;BME280;35268;42.642;23.308;2022-11-15T02:11:44;94442.41;;;4.19;76.09
49393;BME280;35268;42.642;23.308;2022-11-15T02:14:13;94441.59;;;4.14;75.91
49393;BME280;35268;42.642;23.308;2022-11-15T02:16:59;94436.56;;;4.12;75.88
49393;BME280;35268;42.642;23.308;2022-11-15T02:22:35;94439.22;;;4.07;75.94
49393;BME280;35268;42.642;23.308;2022-11-15T02:30:53;94438.91;;;4.04;77.06
49393;BME280;35268;42.642;23.308;2022-11-15T02:33:38;94437.84;;;3.99;77.21
49393;BME280;35268;42.642;23.308;2022-11-15T02:36:13;94432.88;;;4.03;77.31
49393;BME280;35268;42.642;23.308;2022-11-15T02:38:59;94425.97;;;4.02;77.30
49393;BME280;35268;42.642;23.308;2022-11-15T02:41:39;94428.63;;;4.02;77.34
49393;BME280;35268;42.642;23.308;2022-11-15T02:44:19;94432.31;;;4.01;77.54
49393;BME280;35268;42.642;23.308;2022-11-15T02:46:53;94424.66;;;3.99;77.96
49393;BME280;35268;42.642;23.308;2022-11-15T02:49:41;94437.31;;;4.02;77.73
49393;BME280;35268;42.642;23.308;2022-11-15T02:52:07;94434.19;;;4.06;77.25
49393;BME280;35268;42.642;23.308;2022-11-15T02:54:33;94437.59;;;4.06;77.55
49393;BME280;35268;42.642;23.308;2022-11-15T02:57:10;94442.09;;;4.11;77.33
49393;BME280;35268;42.642;23.308;2022-11-15T03:02:44;94438.44;;;4.17;77.24
49393;BME280;35268;42.642;23.308;2022-11-15T03:05:37;94438.72;;;4.20;77.18
49393;BME280;35268;42.642;23.308;2022-11-15T03:08:08;94447.16;;;4.22;77.19
49393;BME280;35268;42.642;23.308;2022-11-15T03:13:30;94439.28;;;4.33;77.97
49393;BME280;35268;42.642;23.308;2022-11-15T03:16:11;94432.97;;;4.39;78.47
49393;BME280;35268;42.642;23.308;2022-11-15T03:19:07;94438.00;;;4.46;78.81
49393;BME280;35268;42.642;23.308;2022-11-15T03:21:39;94430.34;;;4.49;78.60
49393;BME280;35268;42.642;23.308;2022-11-15T03:24:06;94426.41;;;4.52;78.38
49393;BME280;35268;42.642;23.308;2022-11-15T03:26:34;94428.28;;;4.56;78.17
49393;BME280;35268;42.642;23.308;2022-11-15T03:29:09;94424.06;;;4.60;77.79
49393;BME280;35268;42.642;23.308;2022-11-15T03:31:40;94427.75;;;4.65;77.77
49393;BME280;35268;42.642;23.308;2022-11-15T03:34:29;94421.94;;;4.68;77.55
49393;BME280;35268;42.642;23.308;2022-11-15T03:36:57;94425.13;;;4.70;77.56
49393;BME280;35268;42.642;23.308;2022-11-15T03:39:23;94419.03;;;4.69;77.75
49393;BME280;35268;42.642;23.308;2022-11-15T03:42:14;94417.22;;;4.75;78.30
49393;BME280;35268;42.642;23.308;2022-11-15T03:47:20;94407.16;;;4.72;78.22
49393;BME280;35268;42.642;23.308;2022-11-15T03:49:53;94404.00;;;4.70;78.29
49393;BME280;35268;42.642;23.308;2022-11-15T03:52:22;94394.50;;;4.69;78.43
49393;BME280;35268;42.642;23.308;2022-11-15T03:55:00;94395.28;;;4.64;78.51
49393;BME280;35268;42.642;23.308;2022-11-15T03:57:26;94396.88;;;4.65;77.91
49393;BME280;35268;42.642;23.308;2022-11-15T03:59:51;94398.97;;;4.63;77.23
49393;BME280;35268;42.642;23.308;2022-11-15T04:02:16;94396.06;;;4.59;77.24
49393;BME280;35268;42.642;23.308;2022-11-15T04:04:42;94395.53;;;4.57;77.08
49393;BME280;35268;42.642;23.308;2022-11-15T04:07:07;94397.88;;;4.54;76.89
49393;BME280;35268;42.642;23.308;2022-11-15T04:09:33;94402.91;;;4.50;76.92
49393;BME280;35268;42.642;23.308;2022-11-15T04:11:58;94404.75;;;4.50;77.11
49393;BME280;35268;42.642;23.308;2022-11-15T04:14:23;94393.94;;;4.46;77.07
49393;BME280;35268;42.642;23.308;2022-11-15T04:16:49;94396.56;;;4.41;77.00
49393;BME280;35268;42.642;23.308;2022-11-15T04:19:14;94388.09;;;4.39;77.03
49393;BME280;35268;42.642;23.308;2022-11-15T04:21:58;94384.41;;;4.35;76.99
49393;BME280;35268;42.642;23.308;2022-11-15T04:24:42;94389.41;;;4.36;77.22
49393;BME280;35268;42.642;23.308;2022-11-15T04:27:08;94386.78;;;4.41;76.95
49393;BME280;35268;42.642;23.308;2022-11-15T04:29:33;94375.69;;;4.39;77.02
49393;BME280;35268;42.642;23.308;2022-11-15T04:31:59;94383.34;;;4.36;77.15
49393;BME280;35268;42.642;23.308;2022-11-15T04:34:24;94389.41;;;4.36;77.39
49393;BME280;35268;42.642;23.308;2022-11-15T04:36:50;94390.22;;;4.37;77.39
49393;BME280;35268;42.642;23.308;2022-11-15T04:39:34;94396.03;;;4.34;77.34
49393;BME280;35268;42.642;23.308;2022-11-15T04:42:00;94389.94;;;4.33;77.50
49393;BME280;35268;42.642;23.308;2022-11-15T04:44:25;94388.63;;;4.36;77.65
49393;BME280;35268;42.642;23.308;2022-11-15T04:46:51;94388.63;;;4.36;78.01
49393;BME280;35268;42.642;23.308;2022-11-15T04:49:16;94394.69;;;4.36;78.65
49393;BME280;35268;42.642;23.308;2022-11-15T04:51:42;94388.09;;;4.39;79.21
49393;BME280;35268;42.642;23.308;2022-11-15T04:54:07;94391.53;;;4.39;79.42
49393;BME280;35268;42.642;23.308;2022-11-15T04:56:32;94391.00;;;4.37;79.81
49393;BME280;35268;42.642;23.308;2022-11-15T04:58:58;94392.31;;;4.35;79.85
49393;BME280;35268;42.642;23.308;2022-11-15T05:01:23;94389.69;;;4.35;79.98
49393;BME280;35268;42.642;23.308;2022-11-15T05:03:49;94392.03;;;4.31;79.94
49393;BME280;35268;42.642;23.308;2022-11-15T05:06:33;94393.88;;;4.26;80.22
49393;BME280;35268;42.642;23.308;2022-11-15T05:08:58;94394.41;;;4.22;80.56
49393;BME280;35268;42.642;23.308;2022-11-15T05:11:24;94391.22;;;4.20;80.48
49393;BME280;35268;42.642;23.308;2022-11-15T05:13:50;94395.16;;;4.13;80.70
49393;BME280;35268;42.642;23.308;2022-11-15T05:16:15;94394.59;;;4.00;80.92
49393;BME280;35268;42.642;23.308;2022-11-15T05:18:41;94401.09;;;3.82;81.54
49393;BME280;35268;42.642;23.308;2022-11-15T05:21:08;94394.75;;;3.78;81.69
49393;BME280;35268;42.642;23.308;2022-11-15T05:23:34;94397.13;;;3.75;82.09
49393;BME280;35268;42.642;23.308;2022-11-15T05:26:03;94389.91;;;3.60;82.51
49393;BME280;35268;42.642;23.308;2022-11-15T05:28:29;94400.16;;;3.51;83.18
49393;BME280;35268;42.642;23.308;2022-11-15T05:31:02;94393.56;;;3.54;84.09
49393;BME280;35268;42.642;23.308;2022-11-15T05:33:28;94395.47;;;3.58;84.63
49393;BME280;35268;42.642;23.308;2022-11-15T05:36:17;94392.88;;;3.69;84.82
49393;BME280;35268;42.642;23.308;2022-11-15T05:38:45;94391.56;;;3.76;84.82
49393;BME280;35268;42.642;23.308;2022-11-15T05:41:12;94389.25;;;3.85;84.59
49393;BME280;35268;42.642;23.308;2022-11-15T05:43:39;94385.31;;;3.93;84.44
49393;BME280;35268;42.642;23.308;2022-11-15T05:46:05;94390.91;;;4.01;84.42
49393;BME280;35268;42.642;23.308;2022-11-15T05:48:32;94385.13;;;4.10;84.26
49393;BME280;35268;42.642;23.308;2022-11-15T05:50:59;94390.16;;;4.16;83.66
49393;BME280;35268;42.642;23.308;2022-11-15T05:53:25;94394.41;;;4.22;83.98
49393;BME280;35268;42.642;23.308;2022-11-15T05:55:51;94392.28;;;4.25;83.77
49393;BME280;35268;42.642;23.308;2022-11-15T05:58:18;94389.69;;;4.30;83.75
49393;BME280;35268;42.642;23.308;2022-11-15T06:00:44;94395.22;;;4.33;83.88
49393;BME280;35268;42.642;23.308;2022-11-15T06:03:10;94396.03;;;4.34;83.78
49393;BME280;35268;42.642;23.308;2022-11-15T06:05:36;94402.91;;;4.40;82.93
49393;BME280;35268;42.642;23.308;2022-11-15T06:08:06;94404.47;;;4.36;82.64
49393;BME280;35268;42.642;23.308;2022-11-15T06:10:37;94402.59;;;4.31;82.72
49393;BME280;35268;42.642;23.308;2022-11-15T06:13:20;94398.34;;;4.25;82.89
49393;BME280;35268;42.642;23.308;2022-11-15T06:15:55;94404.94;;;4.22;83.22
49393;BME280;35268;42.642;23.308;2022-11-15T06:18:20;94403.34;;;4.11;83.90
49393;BME280;35268;42.642;23.308;2022-11-15T06:20:46;94403.34;;;4.11;84.11
49393;BME280;35268;42.642;23.308;2022-11-15T06:23:11;94409.66;;;4.10;84.44
49393;BME280;35268;42.642;23.308;2022-11-15T06:25:37;94403.34;;;4.11;84.46
49393;BME280;35268;42.642;23.308;2022-11-15T06:28:05;94410.97;;;4.13;84.86
49393;BME280;35268;42.642;23.308;2022-11-15T06:30:31;94405.16;;;4.11;85.37
49393;BME280;35268;42.642;23.308;2022-11-15T06:33:04;94399.63;;;4.12;85.71
49393;BME280;35268;42.642;23.308;2022-11-15T06:35:32;94401.78;;;4.20;85.73
49393;BME280;35268;42.642;23.308;2022-11-15T06:38:03;94393.59;;;4.27;85.57
49393;BME280;35268;42.642;23.308;2022-11-15T06:40:29;94395.22;;;4.33;85.43
49393;BME280;35268;42.642;23.308;2022-11-15T06:43:00;94387.56;;;4.37;85.37
49393;BME280;35268;42.642;23.308;2022-11-15T06:45:26;94395.50;;;4.42;85.36
49393;BME280;35268;42.642;23.308;2022-11-15T06:47:52;94388.66;;;4.46;84.01
49393;BME280;35268;42.642;23.308;2022-11-15T06:50:17;94394.97;;;4.45;83.83
49393;BME280;35268;42.642;23.308;2022-11-15T06:52:43;94389.44;;;4.47;84.61
49393;BME280;35268;42.642;23.308;2022-11-15T06:55:08;94391.56;;;4.55;84.65
49393;BME280;35268;42.642;23.308;2022-11-15T06:57:34;94393.66;;;4.58;83.96
49393;BME280;35268;42.642;23.308;2022-11-15T06:59:59;94394.75;;;4.57;83.20
49393;BME280;35268;42.642;23.308;2022-11-15T07:02:27;94395.78;;;4.56;83.35
49393;BME280;35268;42.642;23.308;2022-11-15T07:04:53;94391.03;;;4.53;83.52
49393;BME280;35268;42.642;23.308;2022-11-15T07:07:18;94397.13;;;4.58;84.16
49393;BME280;35268;42.642;23.308;2022-11-15T07:09:46;94397.13;;;4.63;83.93
49393;BME280;35268;42.642;23.308;2022-11-15T07:12:11;94391.31;;;4.61;83.75
49393;BME280;35268;42.642;23.308;2022-11-15T07:14:37;94389.47;;;4.67;84.14
49393;BME280;35268;42.642;23.308;2022-11-15T07:17:05;94381.28;;;4.69;83.84
49393;BME280;35268;42.642;23.308;2022-11-15T07:19:31;94381.03;;;4.75;84.13
49393;BME280;35268;42.642;23.308;2022-11-15T07:21:56;94383.41;;;4.87;83.86
49393;BME280;35268;42.642;23.308;2022-11-15T07:24:22;94385.53;;;4.95;83.30
49393;BME280;35268;42.642;23.308;2022-11-15T07:26:50;94380.75;;;5.02;82.99
49393;BME280;35268;42.642;23.308;2022-11-15T07:29:15;94386.03;;;5.02;81.44
49393;BME280;35268;42.642;23.308;2022-11-15T07:31:41;94393.72;;;4.94;80.87
49393;BME280;35268;42.642;23.308;2022-11-15T07:34:06;94397.69;;;4.91;81.25
49393;BME280;35268;42.642;23.308;2022-11-15T07:36:32;94392.41;;;4.91;81.53
49393;BME280;35268;42.642;23.308;2022-11-15T07:38:57;94391.88;;;4.89;81.18
49393;BME280;35268;42.642;23.308;2022-11-15T07:41:23;94383.91;;;4.63;81.98
49393;BME280;35268;42.642;23.308;2022-11-15T07:43:53;94391.31;;;4.61;82.67
49393;BME280;35268;42.642;23.308;2022-11-15T07:46:19;94393.19;;;4.76;83.17
49393;BME280;35268;42.642;23.308;2022-11-15T07:48:44;94394.50;;;4.84;82.76
49393;BME280;35268;42.642;23.308;2022-11-15T07:51:14;94392.13;;;4.93;81.98
49393;BME280;35268;42.642;23.308;2022-11-15T07:53:44;94390.28;;;4.93;81.26
49393;BME280;35268;42.642;23.308;2022-11-15T07:56:09;94389.22;;;4.89;81.36
49393;BME280;35268;42.642;23.308;2022-11-15T07:58:35;94387.63;;;4.88;81.85
49393;BME280;35268;42.642;23.308;2022-11-15T08:01:09;94390.81;;;4.95;82.49
49393;BME280;35268;42.642;23.308;2022-11-15T08:03:35;94393.44;;;5.00;81.95
49393;BME280;35268;42.642;23.308;2022-11-15T08:06:02;94384.75;;;5.05;82.05
49393;BME280;35268;42.642;23.308;2022-11-15T08:08:30;94381.28;;;5.10;82.13
49393;BME280;35268;42.642;23.308;2022-11-15T08:10:59;94378.09;;;5.13;81.55
49393;BME280;35268;42.642;23.308;2022-11-15T08:13:25;94385.25;;;5.12;81.55
49393;BME280;35268;42.642;23.308;2022-11-15T08:15:50;94387.63;;;5.24;81.49
49393;BME280;35268;42.642;23.308;2022-11-15T08:18:16;94387.63;;;5.24;80.69
49393;BME280;35268;42.642;23.308;2022-11-15T08:20:42;94382.59;;;5.22;80.28
49393;BME280;35268;42.642;23.308;2022-11-15T08:23:10;94376.53;;;5.12;80.73
49393;BME280;35268;42.642;23.308;2022-11-15T08:25:36;94383.16;;;5.09;81.72
49393;BME280;35268;42.642;23.308;2022-11-15T08:28:06;94374.41;;;5.09;81.95
49393;BME280;35268;42.642;23.308;2022-11-15T08:30:39;94380.50;;;5.04;81.74
49393;BME280;35268;42.642;23.308;2022-11-15T08:33:10;94380.50;;;5.04;81.95
49393;BME280;35268;42.642;23.308;2022-11-15T08:35:36;94379.19;;;5.12;82.47
49393;BME280;35268;42.642;23.308;2022-11-15T08:38:02;94381.81;;;5.12;82.31
49393;BME280;35268;42.642;23.308;2022-11-15T08:40:28;94363.84;;;5.14;82.17
49393;BME280;35268;42.642;23.308;2022-11-15T08:42:53;94368.06;;;5.25;81.52
49393;BME280;35268;42.642;23.308;2022-11-15T08:45:19;94359.34;;;5.30;81.37
49393;BME280;35268;42.642;23.308;2022-11-15T08:47:44;94352.97;;;5.36;81.32
49393;BME280;35268;42.642;23.308;2022-11-15T08:50:10;94359.56;;;5.49;81.27
49393;BME280;35268;42.642;23.308;2022-11-15T08:52:35;94360.59;;;5.53;80.96
49393;BME280;35268;42.642;23.308;2022-11-15T08:55:00;94359.53;;;5.64;80.73
49393;BME280;35268;42.642;23.308;2022-11-15T08:57:29;94358.97;;;5.67;79.83
49393;BME280;35268;42.642;23.308;2022-11-15T08:59:55;94345.44;;;5.74;79.69
49393;BME280;35268;42.642;23.308;2022-11-15T09:02:21;94340.16;;;5.79;79.11
49393;BME280;35268;42.642;23.308;2022-11-15T09:04:46;94345.19;;;5.80;79.17
49393;BME280;35268;42.642;23.308;2022-11-15T09:07:13;94343.31;;;5.81;79.02
49393;BME280;35268;42.642;23.308;2022-11-15T09:09:38;94334.59;;;5.80;78.87
49393;BME280;35268;42.642;23.308;2022-11-15T09:12:05;94340.94;;;5.79;78.76
49393;BME280;35268;42.642;23.308;2022-11-15T09:14:31;94332.75;;;5.81;78.85
49393;BME280;35268;42.642;23.308;2022-11-15T09:16:57;94320.81;;;5.83;79.10
49393;BME280;35268;42.642;23.308;2022-11-15T09:19:23;94321.59;;;5.94;79.04
49393;BME280;35268;42.642;23.308;2022-11-15T09:21:49;94315.25;;;5.95;78.25
49393;BME280;35268;42.642;23.308;2022-11-15T09:24:14;94318.16;;;5.99;78.07
49393;BME280;35268;42.642;23.308;2022-11-15T09:26:40;94327.69;;;5.95;78.08
49393;BME280;35268;42.642;23.308;2022-11-15T09:29:06;94319.47;;;5.91;78.46
49393;BME280;35268;42.642;23.308;2022-11-15T09:31:32;94314.47;;;5.95;78.69
49393;BME280;35268;42.642;23.308;2022-11-15T09:33:57;94305.44;;;6.01;79.07
49393;BME280;35268;42.642;23.308;2022-11-15T09:36:23;94305.09;;;6.13;78.30
49393;BME280;35268;42.642;23.308;2022-11-15T09:38:48;94314.09;;;6.12;78.09
49393;BME280;35268;42.642;23.308;2022-11-15T09:49:20;94285.09;;;6.36;77.87
49393;BME280;35268;42.642;23.308;2022-11-15T09:51:49;94293.47;;;6.48;77.53
49393;BME280;35268;42.642;23.308;2022-11-15T09:54:35;94288.03;;;6.69;76.97
49393;BME280;35268;42.642;23.308;2022-11-15T09:57:14;94280.25;;;6.77;75.73
49393;BME280;35268;42.642;23.308;2022-11-15T10:00:18;94281.63;;;6.75;75.59
49393;BME280;35268;42.642;23.308;2022-11-15T10:03:09;94273.53;;;6.90;75.67
49393;BME280;35268;42.642;23.308;2022-11-15T10:05:39;94271.06;;;6.99;75.29
49393;BME280;35268;42.642;23.308;2022-11-15T10:11:02;94266.94;;;7.17;74.61
49393;BME280;35268;42.642;23.308;2022-11-15T10:13:32;94258.28;;;7.30;74.59
49393;BME280;35268;42.642;23.308;2022-11-15T10:24:35;94236.19;;;8.02;71.69
49393;BME280;35268;42.642;23.308;2022-11-15T10:27:09;94241.69;;;8.06;71.93
49393;BME280;35268;42.642;23.308;2022-11-15T10:29:35;94229.91;;;8.12;71.91
49393;BME280;35268;42.642;23.308;2022-11-15T10:32:01;94233.56;;;8.35;72.12
49393;BME280;35268;42.642;23.308;2022-11-15T10:34:27;94235.34;;;8.58;71.27
49393;BME280;35268;42.642;23.308;2022-11-15T10:36:59;94228.19;;;8.73;70.45
49393;BME280;35268;42.642;23.308;2022-11-15T10:39:26;94217.88;;;8.85;70.30
49393;BME280;35268;42.642;23.308;2022-11-15T10:41:52;94212.22;;;8.92;70.21
49393;BME280;35268;42.642;23.308;2022-11-15T10:44:29;94204.91;;;8.97;69.78
49393;BME280;35268;42.642;23.308;2022-11-15T10:49:30;94201.47;;;9.11;68.73
49393;BME280;35268;42.642;23.308;2022-11-15T10:51:59;94197.41;;;8.99;67.98
49393;BME280;35268;42.642;23.308;2022-11-15T10:56:58;94196.25;;;9.06;68.62
49393;BME280;35268;42.642;23.308;2022-11-15T10:59:28;94184.63;;;9.01;67.12
49393;BME280;35268;42.642;23.308;2022-11-15T11:01:54;94191.41;;;9.08;67.01
49393;BME280;35268;42.642;23.308;2022-11-15T11:04:20;94179.50;;;9.19;67.18
49393;BME280;35268;42.642;23.308;2022-11-15T11:10:18;94171.81;;;9.45;65.92
49393;BME280;35268;42.642;23.308;2022-11-15T11:12:41;94165.50;;;9.55;65.40
49393;BME280;35268;42.642;23.308;2022-11-15T11:15:12;94163.41;;;9.66;64.88
49393;BME280;35268;42.642;23.308;2022-11-15T11:23:12;94150.41;;;9.87;63.54
49393;BME280;35268;42.642;23.308;2022-11-15T11:31:34;94139.53;;;9.97;62.19
49393;BME280;35268;42.642;23.308;2022-11-15T11:40:02;94116.53;;;10.23;62.31
49393;BME280;35268;42.642;23.308;2022-11-15T11:42:56;94106.81;;;10.41;61.90
49393;BME280;35268;42.642;23.308;2022-11-15T11:48:24;94097.03;;;10.59;60.37
49393;BME280;35268;42.642;23.308;2022-11-15T11:51:00;94101.13;;;10.66;59.32
49393;BME280;35268;42.642;23.308;2022-11-15T11:53:36;94100.16;;;10.61;59.39
49393;BME280;35268;42.642;23.308;2022-11-15T11:56:17;94083.22;;;10.57;59.66
49393;BME280;35268;42.642;23.308;2022-11-15T11:58:45;94094.50;;;10.54;59.29
49393;BME280;35268;42.642;23.308;2022-11-15T12:03:47;94066.63;;;10.60;61.06
49393;BME280;35268;42.642;23.308;2022-11-15T12:06:33;94069.03;;;10.79;60.50
49393;BME280;35268;42.642;23.308;2022-11-15T12:17:02;94060.00;;;11.07;57.85
49393;BME280;35268;42.642;23.308;2022-11-15T12:19:28;94060.50;;;11.17;57.50
49393;BME280;35268;42.642;23.308;2022-11-15T12:22:22;94050.44;;;11.23;57.00
49393;BME280;35268;42.642;23.308;2022-11-15T12:29:52;94043.84;;;11.12;57.36
49393;BME280;35268;42.642;23.308;2022-11-15T12:34:48;94043.25;;;11.23;58.26
49393;BME280;35268;42.642;23.308;2022-11-15T12:44:58;94022.19;;;11.74;55.85
49393;BME280;35268;42.642;23.308;2022-11-15T12:47:26;94022.53;;;11.73;55.83
49393;BME280;35268;42.642;23.308;2022-11-15T12:49:52;94020.00;;;11.76;55.62
49393;BME280;35268;42.642;23.308;2022-11-15T12:52:18;94014.03;;;11.79;55.65
49393;BME280;35268;42.642;23.308;2022-11-15T12:59:55;94016.47;;;12.28;54.53
49393;BME280;35268;42.642;23.308;2022-11-15T13:02:29;94010.31;;;12.36;54.62
49393;BME280;35268;42.642;23.308;2022-11-15T13:07:56;94003.13;;;12.67;54.07
49393;BME280;35268;42.642;23.308;2022-11-15T13:20:45;93998.50;;;13.05;52.94
49393;BME280;35268;42.642;23.308;2022-11-15T13:23:12;93989.09;;;12.99;52.56
49393;BME280;35268;42.642;23.308;2022-11-15T13:28:52;93983.88;;;13.03;52.37
49393;BME280;35268;42.642;23.308;2022-11-15T13:31:40;93979.81;;;12.97;52.29
49393;BME280;35268;42.642;23.308;2022-11-15T13:34:33;93973.81;;;13.00;52.05
49393;BME280;35268;42.642;23.308;2022-11-15T13:37:01;93978.09;;;12.92;52.37
49393;BME280;35268;42.642;23.308;2022-11-15T13:39:32;93981.28;;;12.85;52.26
49393;BME280;35268;42.642;23.308;2022-11-15T13:41:58;93991.38;;;12.80;52.75
49393;BME280;35268;42.642;23.308;2022-11-15T13:44:29;93986.09;;;12.71;52.80
49393;BME280;35268;42.642;23.308;2022-11-15T13:49:32;93982.88;;;12.57;53.65
49393;BME280;35268;42.642;23.308;2022-11-15T13:52:00;93985.59;;;12.48;54.01
49393;BME280;35268;42.642;23.308;2022-11-15T13:54:36;93989.09;;;12.40;53.97
49393;BME280;35268;42.642;23.308;2022-11-15T13:59:47;93977.53;;;12.18;55.13
49393;BME280;35268;42.642;23.308;2022-11-15T14:02:19;93971.75;;;12.08;55.66
49393;BME280;35268;42.642;23.308;2022-11-15T14:04:55;93971.16;;;11.93;56.07
49393;BME280;35268;42.642;23.308;2022-11-15T14:07:23;93969.88;;;11.82;56.52
49393;BME280;35268;42.642;23.308;2022-11-15T14:09:50;93970.22;;;11.72;56.84
49393;BME280;35268;42.642;23.308;2022-11-15T14:12:31;93973.22;;;11.61;57.25
49393;BME280;35268;42.642;23.308;2022-11-15T14:14:59;93965.84;;;11.50;57.44
49393;BME280;35268;42.642;23.308;2022-11-15T14:19:54;93971.66;;;11.17;58.05
49393;BME280;35268;42.642;23.308;2022-11-15T14:22:50;93968.53;;;10.97;58.66
49393;BME280;35268;42.642;23.308;2022-11-15T14:25:18;93972.41;;;10.82;59.25
49393;BME280;35268;42.642;23.308;2022-11-15T14:28:11;93970.03;;;10.72;59.97
49393;BME280;35268;42.642;23.308;2022-11-15T14:30:38;93973.00;;;10.62;60.25
49393;BME280;35268;42.642;23.308;2022-11-15T14:33:37;93967.19;;;10.51;60.36
49393;BME280;35268;42.642;23.308;2022-11-15T14:36:12;93964.31;;;10.39;60.73
49393;BME280;35268;42.642;23.308;2022-11-15T14:38:38;93965.16;;;10.25;61.03
49393;BME280;35268;42.642;23.308;2022-11-15T14:41:04;93960.28;;;10.19;61.48
49393;BME280;35268;42.642;23.308;2022-11-15T14:43:31;93961.53;;;10.13;61.64
49393;BME280;35268;42.642;23.308;2022-11-15T14:45:56;93972.63;;;10.06;62.15
49393;BME280;35268;42.642;23.308;2022-11-15T14:48:22;93974.94;;;9.99;62.29
49393;BME280;35268;42.642;23.308;2022-11-15T14:50:47;93964.72;;;9.92;62.62
49393;BME280;35268;42.642;23.308;2022-11-15T14:53:16;93968.44;;;9.82;63.00
49393;BME280;35268;42.642;23.308;2022-11-15T14:55:42;93964.63;;;9.75;63.13
49393;BME280;35268;42.642;23.308;2022-11-15T14:58:08;93963.97;;;9.69;63.52
49393;BME280;35268;42.642;23.308;2022-11-15T15:00:38;93960.47;;;9.60;63.87
49393;BME280;35268;42.642;23.308;2022-11-15T15:03:05;93971.38;;;9.50;64.06
49393;BME280;35268;42.642;23.308;2022-11-15T15:05:42;93972.72;;;9.38;64.15
49393;BME280;35268;42.642;23.308;2022-11-15T15:08:08;93969.47;;;9.28;64.40
49393;BME280;35268;42.642;23.308;2022-11-15T15:10:37;93966.75;;;9.19;64.71